Time;durP1;ratioP1;P1;durP2;ratioP2;P2;SDS_P1;SDS_P2;PMS_P1;PMS_P2;Temp;Humidity;BMP_temperature;BMP_pressure;BME280_temperature;BME280_humidity;BME280_pressure;Samples;Min_cycle;Max_cycle;Signal;HPM_P1;HPM_P2
2023/05/19 00:00:21;;;;;;;2.67;1.60;;;;;;;;;;2016436;29;20029;-88
2023/05/19 00:01:23;;;;;;;1.67;1.55;;;;;;;;;;2016072;29;20375;-89
2023/05/19 00:02:24;;;;;;;1.60;1.50;;;;;;;;;;2023869;29;20062;-88
2023/05/19 00:03:25;;;;;;;1.90;1.45;;;;;;;;;;2023925;29;20573;-87
2023/05/19 00:04:26;;;;;;;1.75;1.40;;;;;;;;;;2032625;29;20120;-88
2023/05/19 00:05:29;;;;;;;3.22;1.83;;;;;;;;;;2032366;29;20058;-88
2023/05/19 00:06:31;;;;;;;2.85;1.58;;;;;;;;;;2031709;29;20110;-88
2023/05/19 00:07:33;;;;;;;1.48;1.20;;;;;;;;;;2031682;29;20024;-86
2023/05/19 00:08:36;;;;;;;1.92;1.35;;;;;;;;;;2023856;29;20035;-87
2023/05/19 00:09:38;;;;;;;2.00;1.30;;;;;;;;;;2016430;29;20132;-89
2023/05/19 00:10:38;;;;;;;3.58;1.77;;;;;;;;;;2024098;29;20079;-88
2023/05/19 00:11:40;;;;;;;3.17;1.40;;;;;;;;;;2034428;29;20039;-87
2023/05/19 00:12:42;;;;;;;1.80;1.58;;;;;;;;;;2041781;29;20028;-87
2023/05/19 00:13:47;;;;;;;2.55;1.83;;;;;;;;;;2040987;29;20087;-87
2023/05/19 00:14:47;;;;;;;2.15;1.80;;;;;;;;;;2041344;29;20034;-86
2023/05/19 00:15:48;;;;;;;2.45;1.33;;;;;;;;;;2041434;29;20021;-87
2023/05/19 00:16:49;;;;;;;3.17;1.50;;;;;;;;;;2039832;29;20047;-86
2023/05/19 00:17:51;;;;;;;2.35;1.50;;;;;;;;;;2027547;29;20112;-87
2023/05/19 00:18:52;;;;;;;2.22;1.48;;;;;;;;;;2025829;29;20125;-86
2023/05/19 00:19:53;;;;;;;2.58;1.52;;;;;;;;;;2032012;29;20170;-87
2023/05/19 00:20:54;;;;;;;2.35;1.55;;;;;;;;;;2024042;29;20020;-87
2023/05/19 00:21:54;;;;;;;3.28;1.80;;;;;;;;;;2023910;29;20060;-87
2023/05/19 00:22:54;;;;;;;2.25;1.90;;;;;;;;;;2032247;29;20028;-87
2023/05/19 00:23:55;;;;;;;2.97;1.80;;;;;;;;;;2031567;29;20024;-87
2023/05/19 00:24:55;;;;;;;2.20;1.50;;;;;;;;;;2031597;29;20121;-87
2023/05/19 00:25:55;;;;;;;3.47;1.70;;;;;;;;;;2023969;29;20509;-87
2023/05/19 00:26:56;;;;;;;2.30;1.58;;;;;;;;;;2023800;29;20528;-87
2023/05/19 00:27:58;;;;;;;2.28;1.63;;;;;;;;;;2023687;29;20060;-88
2023/05/19 00:28:58;;;;;;;3.78;1.70;;;;;;;;;;2023717;29;20036;-88
2023/05/19 00:29:58;;;;;;;4.20;1.95;;;;;;;;;;2023783;29;20104;-89
2023/05/19 00:31:00;;;;;;;2.45;1.60;;;;;;;;;;2023645;29;20389;-88
2023/05/19 00:32:01;;;;;;;3.13;2.00;;;;;;;;;;2024122;29;20021;-90
2023/05/19 00:33:01;;;;;;;1.75;1.58;;;;;;;;;;2023566;29;20437;-88
2023/05/19 00:34:02;;;;;;;4.28;1.77;;;;;;;;;;2023573;29;20021;-88
2023/05/19 00:35:02;;;;;;;2.55;1.88;;;;;;;;;;2023561;29;20028;-89
2023/05/19 00:36:03;;;;;;;1.60;1.50;;;;;;;;;;2023522;29;20065;-88
2023/05/19 00:37:03;;;;;;;2.00;1.77;;;;;;;;;;2023565;29;20161;-88
2023/05/19 00:38:04;;;;;;;5.38;1.88;;;;;;;;;;2032136;29;20084;-87
2023/05/19 00:39:04;;;;;;;2.22;1.60;;;;;;;;;;2032198;29;20488;-88
2023/05/19 00:40:05;;;;;;;2.95;1.73;;;;;;;;;;2032042;29;20068;-86
2023/05/19 00:41:06;;;;;;;4.75;1.83;;;;;;;;;;2032138;29;20092;-89
2023/05/19 00:42:06;;;;;;;2.08;1.52;;;;;;;;;;2032214;29;20115;-87
2023/05/19 00:43:09;;;;;;;3.97;1.65;;;;;;;;;;2031995;29;20052;-87
2023/05/19 00:44:10;;;;;;;3.05;1.40;;;;;;;;;;2032125;29;20072;-88
2023/05/19 00:45:10;;;;;;;2.30;1.60;;;;;;;;;;2031565;29;20040;-88
2023/05/19 00:46:12;;;;;;;2.38;1.88;;;;;;;;;;2031288;29;20031;-87
2023/05/19 00:47:13;;;;;;;2.00;1.80;;;;;;;;;;2032030;29;20031;-87
2023/05/19 00:48:13;;;;;;;1.83;1.48;;;;;;;;;;2032010;29;20391;-88
2023/05/19 00:49:13;;;;;;;2.35;1.65;;;;;;;;;;2032238;29;20492;-88
2023/05/19 00:50:14;;;;;;;5.18;2.00;;;;;;;;;;2032050;29;20035;-88
2023/05/19 00:51:15;;;;;;;6.95;2.00;;;;;;;;;;2032376;29;20036;-89
2023/05/19 00:52:16;;;;;;;2.83;1.60;;;;;;;;;;2031705;29;20035;-89
2023/05/19 00:53:18;;;;;;;2.10;1.75;;;;;;;;;;2031470;29;20032;-88
2023/05/19 00:54:19;;;;;;;1.73;1.52;;;;;;;;;;2032107;29;20032;-87
2023/05/19 00:55:27;;;;;;;4.35;2.05;;;;;;;;;;2032071;29;20028;-88
2023/05/19 00:56:27;;;;;;;2.95;2.05;;;;;;;;;;2032136;29;20111;-88
2023/05/19 00:57:28;;;;;;;2.78;1.95;;;;;;;;;;2031994;29;20464;-88
2023/05/19 00:58:29;;;;;;;2.22;1.90;;;;;;;;;;2031989;29;20032;-87
2023/05/19 00:59:30;;;;;;;2.35;1.85;;;;;;;;;;2023393;29;20087;-87
2023/05/19 01:00:30;;;;;;;8.13;2.38;;;;;;;;;;2023652;29;20029;-88
2023/05/19 01:01:31;;;;;;;4.38;2.25;;;;;;;;;;2031188;29;20031;-88
2023/05/19 01:02:31;;;;;;;2.85;1.77;;;;;;;;;;2031495;29;20016;-88
2023/05/19 01:03:34;;;;;;;2.85;1.90;;;;;;;;;;2023671;29;20059;-88
2023/05/19 01:04:36;;;;;;;2.78;2.28;;;;;;;;;;2021456;29;20144;-87
2023/05/19 01:05:38;;;;;;;3.83;1.85;;;;;;;;;;2031591;29;20028;-87
2023/05/19 01:06:42;;;;;;;2.85;2.00;;;;;;;;;;1764432;29;10383392;-88
2023/05/19 01:07:42;;;;;;;2.33;1.95;;;;;;;;;;2033125;29;20406;-89
2023/05/19 01:08:43;;;;;;;4.15;2.22;;;;;;;;;;2035633;29;20028;-88
2023/05/19 01:09:45;;;;;;;2.85;1.52;;;;;;;;;;2023400;29;20112;-88
2023/05/19 01:10:45;;;;;;;1.85;1.65;;;;;;;;;;2023138;29;20055;-88
2023/05/19 01:11:46;;;;;;;3.35;1.88;;;;;;;;;;2031477;29;20063;-88
2023/05/19 01:12:47;;;;;;;2.08;1.80;;;;;;;;;;2031669;29;20078;-88
2023/05/19 01:13:48;;;;;;;5.32;2.50;;;;;;;;;;2039080;29;20152;-88
2023/05/19 01:14:49;;;;;;;3.15;2.10;;;;;;;;;;2031455;29;20111;-88
2023/05/19 01:16:00;;;;;;;2.60;2.10;;;;;;;;;;2015729;29;20040;-89
2023/05/19 01:17:07;;;;;;;2.45;1.98;;;;;;;;;;2032586;29;20043;-88
2023/05/19 01:18:12;;;;;;;2.63;1.90;;;;;;;;;;2038550;29;20396;-88
2023/05/19 01:19:49;;;;;;;4.30;1.85;;;;;;;;;;2031699;29;20317;-87
2023/05/19 01:21:03;;;;;;;2.40;2.20;;;;;;;;;;1685750;29;10002915;-89
2023/05/19 01:22:41;;;;;;;4.43;2.10;;;;;;;;;;2025254;29;20029;-88
2023/05/19 01:24:02;;;;;;;4.03;2.20;;;;;;;;;;2031011;29;20043;-89
2023/05/19 01:25:06;;;;;;;;;;;;;;;;;;2032113;29;20563;-89
2023/05/19 01:26:24;;;;;;;3.25;2.20;;;;;;;;;;2031503;29;19936;-88
2023/05/19 01:27:51;;;;;;;3.25;2.20;;;;;;;;;;2031571;29;20031;-88
2023/05/19 01:29:01;;;;;;;2.38;2.10;;;;;;;;;;2031409;29;20377;-91
2023/05/19 01:30:25;;;;;;;2.58;2.38;;;;;;;;;;2031815;29;20496;-88
2023/05/19 01:31:26;;;;;;;3.15;2.63;;;;;;;;;;1685378;29;10002791;-88
2023/05/19 01:32:28;;;;;;;2.85;2.28;;;;;;;;;;2023471;29;20024;-88
2023/05/19 01:33:30;;;;;;;4.57;2.40;;;;;;;;;;1684471;29;10249749;-88
2023/05/19 01:34:32;;;;;;;3.53;1.98;;;;;;;;;;2032057;29;20107;-87
2023/05/19 01:35:36;;;;;;;3.15;2.30;;;;;;;;;;2032131;29;20107;-87
2023/05/19 01:36:37;;;;;;;6.45;2.25;;;;;;;;;;2023967;29;20029;-87
2023/05/19 01:37:40;;;;;;;3.25;2.28;;;;;;;;;;2023014;29;20040;-88
2023/05/19 01:38:42;;;;;;;2.95;2.28;;;;;;;;;;2022991;29;20040;-87
2023/05/19 01:39:43;;;;;;;3.03;2.15;;;;;;;;;;2023480;29;20071;-88
2023/05/19 01:40:47;;;;;;;4.22;2.35;;;;;;;;;;2038748;29;20451;-87
2023/05/19 01:41:48;;;;;;;3.40;2.55;;;;;;;;;;2038446;29;20028;-88
2023/05/19 01:42:51;;;;;;;3.65;2.53;;;;;;;;;;2023117;29;20155;-87
2023/05/19 01:43:53;;;;;;;3.60;2.47;;;;;;;;;;2023686;29;20036;-88
2023/05/19 01:44:54;;;;;;;3.78;1.98;;;;;;;;;;1696055;29;10075658;-88
2023/05/19 01:45:57;;;;;;;3.33;2.53;;;;;;;;;;2031137;29;20024;-87
2023/05/19 01:46:58;;;;;;;3.30;2.40;;;;;;;;;;1675939;29;10300622;-89
2023/05/19 01:48:01;;;;;;;5.82;2.35;;;;;;;;;;2031726;29;20488;-89
2023/05/19 01:49:03;;;;;;;2.50;2.30;;;;;;;;;;2022852;29;20115;-86
2023/05/19 01:50:04;;;;;;;6.57;2.20;;;;;;;;;;2015592;29;20112;-89
2023/05/19 01:51:04;;;;;;;4.25;2.30;;;;;;;;;;2031031;29;20020;-88
2023/05/19 01:52:05;;;;;;;3.17;2.50;;;;;;;;;;1687093;29;10344930;-88
2023/05/19 01:53:06;;;;;;;3.05;2.60;;;;;;;;;;2031885;29;20047;-88
2023/05/19 01:54:06;;;;;;;;;;;;;;;;;;1680304;29;10171524;-89
2023/05/19 01:55:07;;;;;;;3.00;2.20;;;;;;;;;;2015469;29;20325;-88
2023/05/19 01:56:07;;;;;;;2.67;2.05;;;;;;;;;;2015648;29;20131;-88
2023/05/19 01:57:28;;;;;;;5.03;2.17;;;;;;;;;;2023431;29;20032;-88
2023/05/19 01:58:40;;;;;;;3.40;2.65;;;;;;;;;;2032114;29;20043;-88
2023/05/19 01:59:53;;;;;;;2.75;2.42;;;;;;;;;;2041071;29;20086;-86
2023/05/19 02:01:12;;;;;;;4.72;2.25;;;;;;;;;;2030376;29;20028;-88
2023/05/19 02:02:42;;;;;;;3.40;2.28;;;;;;;;;;2017449;29;20367;-88
2023/05/19 02:04:20;;;;;;;2.92;1.92;;;;;;;;;;2027109;29;20031;-89
2023/05/19 02:05:43;;;;;;;3.42;2.50;;;;;;;;;;2032663;29;20483;-90
2023/05/19 02:07:04;;;;;;;3.22;2.10;;;;;;;;;;2021708;29;20047;-89
2023/05/19 02:08:25;;;;;;;5.50;2.58;;;;;;;;;;2016465;29;20044;-89
2023/05/19 02:09:48;;;;;;;8.07;2.22;;;;;;;;;;2027560;29;20028;-89
2023/05/19 02:10:56;;;;;;;4.07;2.50;;;;;;;;;;2033054;29;20205;-88
2023/05/19 02:12:22;;;;;;;3.58;2.40;;;;;;;;;;2033302;29;20031;-89
2023/05/19 02:13:28;;;;;;;3.47;2.55;;;;;;;;;;2024141;29;20063;-88
2023/05/19 02:14:34;;;;;;;2.50;2.30;;;;;;;;;;2025345;29;20667;-88
2023/05/19 02:15:40;;;;;;;3.58;2.70;;;;;;;;;;2037895;29;20051;-89
2023/05/19 02:16:44;;;;;;;2.60;2.38;;;;;;;;;;2033329;29;20582;-88
2023/05/19 02:17:47;;;;;;;5.32;2.50;;;;;;;;;;2032321;29;20040;-88
2023/05/19 02:18:47;;;;;;;3.78;2.40;;;;;;;;;;2032552;29;20092;-89
2023/05/19 02:19:48;;;;;;;2.85;2.20;;;;;;;;;;2031557;29;20092;-88
2023/05/19 02:20:48;;;;;;;4.88;2.50;;;;;;;;;;2034836;29;20134;-87
2023/05/19 02:21:48;;;;;;;2.42;2.20;;;;;;;;;;2034775;29;20032;-88
2023/05/19 02:22:49;;;;;;;2.15;1.95;;;;;;;;;;2050505;28;20031;-89
2023/05/19 02:23:49;;;;;;;4.45;2.63;;;;;;;;;;2042612;28;20131;-89
2023/05/19 02:24:50;;;;;;;5.55;2.55;;;;;;;;;;2030206;29;20083;-88
2023/05/19 02:25:50;;;;;;;5.82;3.00;;;;;;;;;;2032365;29;20028;-89
2023/05/19 02:26:52;;;;;;;2.70;2.40;;;;;;;;;;1687641;29;10157163;-88
2023/05/19 02:27:53;;;;;;;2.75;2.50;;;;;;;;;;2024436;29;20080;-87
2023/05/19 02:28:53;;;;;;;2.42;2.22;;;;;;;;;;2024246;29;20410;-89
2023/05/19 02:29:54;;;;;;;4.93;2.53;;;;;;;;;;2024388;29;20493;-89
2023/05/19 02:30:57;;;;;;;5.18;2.63;;;;;;;;;;2024466;29;20119;-88
2023/05/19 02:32:00;;;;;;;3.92;2.65;;;;;;;;;;2032706;29;20032;-88
2023/05/19 02:33:01;;;;;;;2.83;2.13;;;;;;;;;;2024259;29;20032;-89
2023/05/19 02:34:01;;;;;;;4.18;2.67;;;;;;;;;;2024408;29;20520;-88
2023/05/19 02:35:02;;;;;;;2.30;2.10;;;;;;;;;;2039985;29;20046;-89
2023/05/19 02:36:04;;;;;;;3.95;2.67;;;;;;;;;;2039401;29;20032;-88
2023/05/19 02:37:06;;;;;;;4.25;2.50;;;;;;;;;;2032116;29;20456;-89
2023/05/19 02:38:06;;;;;;;2.65;2.40;;;;;;;;;;2048574;28;20038;-88
2023/05/19 02:39:09;;;;;;;3.33;2.65;;;;;;;;;;2049983;28;20012;-88
2023/05/19 02:40:10;;;;;;;3.50;2.50;;;;;;;;;;2042657;28;20023;-88
2023/05/19 02:41:10;;;;;;;6.13;2.50;;;;;;;;;;2042710;28;20089;-88
2023/05/19 02:42:11;;;;;;;2.58;2.35;;;;;;;;;;1687480;29;10236194;-88
2023/05/19 02:43:11;;;;;;;3.05;2.55;;;;;;;;;;2030323;29;20526;-88
2023/05/19 02:44:13;;;;;;;4.50;2.50;;;;;;;;;;2034883;29;20111;-86
2023/05/19 02:45:13;;;;;;;5.30;2.58;;;;;;;;;;2025584;29;20036;-87
2023/05/19 02:46:14;;;;;;;3.67;2.75;;;;;;;;;;2032659;29;20024;-86
2023/05/19 02:47:14;;;;;;;2.92;2.33;;;;;;;;;;2041317;29;20071;-85
2023/05/19 02:48:15;;;;;;;4.60;3.05;;;;;;;;;;2042180;29;20084;-86
2023/05/19 02:49:17;;;;;;;5.35;3.28;;;;;;;;;;2041818;29;20048;-88
2023/05/19 02:50:21;;;;;;;3.22;2.72;;;;;;;;;;2030313;29;20099;-90
2023/05/19 02:51:21;;;;;;;3.60;2.67;;;;;;;;;;2027748;29;20029;-88
2023/05/19 02:52:23;;;;;;;5.70;3.22;;;;;;;;;;2019071;29;20506;-91
2023/05/19 02:53:24;;;;;;;5.53;3.83;;;;;;;;;;2018796;29;20025;-88
2023/05/19 02:54:24;;;;;;;3.97;3.17;;;;;;;;;;2026307;29;20048;-88
2023/05/19 02:55:25;;;;;;;7.82;5.05;;;;;;;;;;2024325;29;20053;-88
2023/05/19 02:56:27;;;;;;;5.40;3.53;;;;;;;;;;2024590;29;20069;-88
2023/05/19 02:57:28;;;;;;;3.95;3.17;;;;;;;;;;2024476;29;20120;-87
2023/05/19 02:58:29;;;;;;;3.33;2.42;;;;;;;;;;2024826;29;20064;-90
2023/05/19 02:59:30;;;;;;;3.42;2.72;;;;;;;;;;2032487;29;20032;-90
2023/05/19 03:00:30;;;;;;;10.73;5.82;;;;;;;;;;2032206;29;20028;-90
2023/05/19 03:01:33;;;;;;;3.90;2.90;;;;;;;;;;2032972;29;20075;-86
2023/05/19 03:02:34;;;;;;;5.18;2.92;;;;;;;;;;2032874;29;20032;-88
2023/05/19 03:03:34;;;;;;;5.28;3.15;;;;;;;;;;2032895;29;20499;-88
2023/05/19 03:04:40;;;;;;;4.25;2.60;;;;;;;;;;2032313;29;20055;-89
2023/05/19 03:05:40;;;;;;;3.78;3.03;;;;;;;;;;2023776;29;20060;-88
2023/05/19 03:06:41;;;;;;;5.03;2.78;;;;;;;;;;2015974;29;20089;-88
2023/05/19 03:07:41;;;;;;;2.75;2.50;;;;;;;;;;2023966;29;20056;-88
2023/05/19 03:08:42;;;;;;;4.07;2.72;;;;;;;;;;2024419;29;20037;-89
2023/05/19 03:09:45;;;;;;;4.45;2.70;;;;;;;;;;1751824;29;10397453;-89
2023/05/19 03:10:45;;;;;;;3.35;2.83;;;;;;;;;;2031826;29;20645;-88
2023/05/19 03:11:46;;;;;;;4.20;3.00;;;;;;;;;;2024123;29;20060;-89
2023/05/19 03:12:46;;;;;;;3.28;2.60;;;;;;;;;;2032426;29;20031;-90
2023/05/19 03:13:47;;;;;;;4.00;3.50;;;;;;;;;;2032889;29;20040;-89
2023/05/19 03:14:47;;;;;;;4.50;2.90;;;;;;;;;;2033265;29;20084;-89
2023/05/19 03:15:49;;;;;;;4.57;3.00;;;;;;;;;;2031397;29;20527;-88
2023/05/19 03:16:50;;;;;;;3.65;2.30;;;;;;;;;;2023961;29;20626;-88
2023/05/19 03:17:50;;;;;;;4.45;2.50;;;;;;;;;;2024099;29;20040;-88
2023/05/19 03:18:51;;;;;;;3.15;2.83;;;;;;;;;;2032535;29;20032;-90
2023/05/19 03:19:54;;;;;;;3.70;2.70;;;;;;;;;;2030657;29;20128;-88
2023/05/19 03:20:55;;;;;;;3.75;2.83;;;;;;;;;;2032857;29;20484;-88
2023/05/19 03:21:55;;;;;;;3.05;2.63;;;;;;;;;;2024053;29;20128;-87
2023/05/19 03:22:56;;;;;;;3.63;2.95;;;;;;;;;;2016571;29;20024;-88
2023/05/19 03:23:57;;;;;;;3.90;2.95;;;;;;;;;;2023965;29;20028;-88
2023/05/19 03:24:57;;;;;;;3.70;3.00;;;;;;;;;;2032563;29;20396;-87
2023/05/19 03:25:58;;;;;;;4.18;2.63;;;;;;;;;;2024100;29;20164;-88
2023/05/19 03:26:58;;;;;;;3.15;2.67;;;;;;;;;;2024062;29;20275;-88
2023/05/19 03:27:59;;;;;;;4.90;3.00;;;;;;;;;;2023972;29;20536;-88
2023/05/19 03:28:59;;;;;;;3.72;2.67;;;;;;;;;;2024248;29;20059;-87
2023/05/19 03:30:00;;;;;;;3.10;2.80;;;;;;;;;;2032627;29;20563;-87
2023/05/19 03:31:00;;;;;;;4.03;2.88;;;;;;;;;;2032340;29;20642;-88
2023/05/19 03:32:01;;;;;;;3.55;2.63;;;;;;;;;;2032928;29;20507;-88
2023/05/19 03:33:01;;;;;;;3.72;2.83;;;;;;;;;;2032011;29;20028;-87
2023/05/19 03:34:02;;;;;;;3.95;3.00;;;;;;;;;;2031596;29;20020;-88
2023/05/19 03:35:04;;;;;;;3.95;3.03;;;;;;;;;;2032164;29;20020;-88
2023/05/19 03:36:05;;;;;;;4.13;3.30;;;;;;;;;;1684751;29;10255249;-88
2023/05/19 03:37:05;;;;;;;6.65;3.00;;;;;;;;;;2032310;29;20492;-88
2023/05/19 03:38:08;;;;;;;4.75;2.90;;;;;;;;;;2031542;29;20531;-88
2023/05/19 03:39:08;;;;;;;7.70;3.17;;;;;;;;;;2023295;29;20039;-88
2023/05/19 03:40:09;;;;;;;5.13;2.83;;;;;;;;;;2023644;29;20033;-88
2023/05/19 03:41:09;;;;;;;3.03;2.40;;;;;;;;;;2037000;29;20114;-88
2023/05/19 03:42:10;;;;;;;3.90;2.90;;;;;;;;;;2031840;29;20518;-87
2023/05/19 03:43:10;;;;;;;5.03;3.10;;;;;;;;;;2033804;29;20046;-88
2023/05/19 03:44:10;;;;;;;5.95;3.03;;;;;;;;;;2034277;29;20036;-88
2023/05/19 03:45:11;;;;;;;3.42;2.75;;;;;;;;;;2032482;29;20044;-88
2023/05/19 03:46:12;;;;;;;5.97;2.88;;;;;;;;;;2032048;29;20038;-89
2023/05/19 03:47:12;;;;;;;3.75;2.90;;;;;;;;;;2032175;29;20033;-89
2023/05/19 03:48:14;;;;;;;4.07;3.30;;;;;;;;;;2032213;29;20095;-87
2023/05/19 03:49:15;;;;;;;3.67;2.85;;;;;;;;;;2033062;29;20515;-88
2023/05/19 03:50:16;;;;;;;3.25;2.67;;;;;;;;;;2032803;29;20087;-89
2023/05/19 03:51:16;;;;;;;6.43;3.40;;;;;;;;;;2024436;29;20058;-88
2023/05/19 03:52:17;;;;;;;3.90;2.80;;;;;;;;;;2023870;29;20028;-87
2023/05/19 03:53:17;;;;;;;5.55;3.00;;;;;;;;;;2032229;29;20082;-87
2023/05/19 03:54:17;;;;;;;3.47;2.97;;;;;;;;;;2032257;29;20103;-87
2023/05/19 03:55:19;;;;;;;2.90;2.63;;;;;;;;;;2032331;29;20139;-87
2023/05/19 03:56:21;;;;;;;5.15;3.03;;;;;;;;;;2023637;29;20041;-88
2023/05/19 03:57:22;;;;;;;7.47;3.42;;;;;;;;;;2023787;29;20036;-88
2023/05/19 03:58:22;;;;;;;4.15;2.63;;;;;;;;;;2039098;29;20121;-87
2023/05/19 03:59:23;;;;;;;3.10;2.70;;;;;;;;;;2031682;29;20043;-87
2023/05/19 04:00:24;;;;;;;3.50;2.80;;;;;;;;;;2023834;29;20032;-87
2023/05/19 04:01:24;;;;;;;4.95;3.08;;;;;;;;;;2032216;29;20503;-88
2023/05/19 04:02:25;;;;;;;3.35;2.67;;;;;;;;;;2032066;29;20117;-88
2023/05/19 04:03:25;;;;;;;3.42;3.00;;;;;;;;;;2023545;29;20037;-88
2023/05/19 04:04:26;;;;;;;4.82;2.85;;;;;;;;;;2023837;29;20056;-88
2023/05/19 04:05:26;;;;;;;4.63;2.83;;;;;;;;;;2032246;29;20028;-87
2023/05/19 04:06:26;;;;;;;6.43;3.10;;;;;;;;;;2032091;29;20051;-87
2023/05/19 04:07:27;;;;;;;3.03;2.75;;;;;;;;;;2023974;29;20035;-88
2023/05/19 04:08:27;;;;;;;6.25;3.05;;;;;;;;;;2016128;29;20482;-87
2023/05/19 04:09:28;;;;;;;3.85;2.90;;;;;;;;;;2024499;29;20185;-87
2023/05/19 04:10:28;;;;;;;3.63;2.80;;;;;;;;;;2031752;29;20032;-87
2023/05/19 04:11:29;;;;;;;3.35;2.88;;;;;;;;;;2031733;29;20508;-87
2023/05/19 04:12:29;;;;;;;5.20;3.33;;;;;;;;;;2031733;29;20039;-87
2023/05/19 04:13:34;;;;;;;5.93;2.95;;;;;;;;;;2031918;29;20032;-88
2023/05/19 04:14:34;;;;;;;2.95;2.65;;;;;;;;;;2032444;29;20039;-88
2023/05/19 04:15:35;;;;;;;4.55;2.83;;;;;;;;;;2032122;29;20035;-88
2023/05/19 04:16:35;;;;;;;3.45;2.95;;;;;;;;;;2039647;29;20484;-88
2023/05/19 04:17:36;;;;;;;9.65;3.30;;;;;;;;;;2039150;29;20040;-88
2023/05/19 04:18:37;;;;;;;5.03;3.00;;;;;;;;;;2031743;29;20481;-88
2023/05/19 04:19:37;;;;;;;4.82;3.38;;;;;;;;;;2039029;29;20043;-88
2023/05/19 04:20:38;;;;;;;4.05;3.08;;;;;;;;;;2030872;29;20056;-87
2023/05/19 04:21:38;;;;;;;5.35;3.00;;;;;;;;;;2023637;29;20272;-87
2023/05/19 04:22:38;;;;;;;4.25;2.80;;;;;;;;;;2031672;29;20463;-88
2023/05/19 04:23:39;;;;;;;5.20;3.15;;;;;;;;;;2032921;29;20185;-88
2023/05/19 04:24:41;;;;;;;4.50;3.10;;;;;;;;;;2024442;29;20116;-89
2023/05/19 04:25:42;;;;;;;4.78;3.13;;;;;;;;;;2032398;29;20036;-87
2023/05/19 04:26:45;;;;;;;6.68;3.20;;;;;;;;;;2040028;29;20032;-88
2023/05/19 04:27:47;;;;;;;5.78;3.05;;;;;;;;;;2032950;29;20031;-89
2023/05/19 04:28:47;;;;;;;4.72;2.80;;;;;;;;;;2033452;29;20032;-89
2023/05/19 04:29:48;;;;;;;4.43;3.22;;;;;;;;;;2024603;29;20070;-89
2023/05/19 04:30:49;;;;;;;4.03;3.22;;;;;;;;;;2016910;29;20206;-89
2023/05/19 04:31:49;;;;;;;3.33;3.03;;;;;;;;;;2032131;29;20036;-88
2023/05/19 04:32:51;;;;;;;3.75;2.75;;;;;;;;;;2040252;29;20034;-89
2023/05/19 04:33:54;;;;;;;3.65;2.92;;;;;;;;;;2033298;29;20081;-90
2023/05/19 04:34:55;;;;;;;3.88;2.75;;;;;;;;;;2035591;29;20031;-88
2023/05/19 04:35:55;;;;;;;3.90;3.00;;;;;;;;;;2035524;29;20302;-88
2023/05/19 04:36:56;;;;;;;3.33;2.45;;;;;;;;;;2024522;29;20107;-89
2023/05/19 04:37:56;;;;;;;3.67;2.83;;;;;;;;;;2024403;29;20544;-89
2023/05/19 04:39:01;;;;;;;6.57;2.72;;;;;;;;;;2032817;29;20107;-88
2023/05/19 04:40:04;;;;;;;5.30;2.92;;;;;;;;;;2024182;29;20048;-89
2023/05/19 04:41:08;;;;;;;2.95;2.55;;;;;;;;;;2032598;29;20109;-89
2023/05/19 04:42:10;;;;;;;3.38;2.67;;;;;;;;;;2031566;29;20197;-89
2023/05/19 04:43:10;;;;;;;3.75;2.60;;;;;;;;;;2024492;29;20152;-89
2023/05/19 04:44:12;;;;;;;6.47;3.10;;;;;;;;;;2029376;29;20170;-88
2023/05/19 04:45:12;;;;;;;3.47;2.70;;;;;;;;;;2029574;29;20428;-88
2023/05/19 04:46:13;;;;;;;4.82;3.53;;;;;;;;;;2027631;29;20063;-88
2023/05/19 04:48:11;;;;;;;4.80;2.97;;;;;;;;;;2031719;29;20033;-88
2023/05/19 04:49:11;;;;;;;3.10;2.72;;;;;;;;;;2021575;29;20040;-88
2023/05/19 04:50:11;;;;;;;7.20;2.53;;;;;;;;;;2047953;28;20044;-88
2023/05/19 04:51:13;;;;;;;3.72;2.80;;;;;;;;;;2042026;29;20123;-88
2023/05/19 04:52:13;;;;;;;2.90;2.58;;;;;;;;;;2023195;29;20072;-88
2023/05/19 04:53:14;;;;;;;4.75;2.75;;;;;;;;;;2023077;29;20032;-88
2023/05/19 04:54:15;;;;;;;4.95;2.67;;;;;;;;;;2022779;29;20038;-88
2023/05/19 04:55:16;;;;;;;2.72;2.47;;;;;;;;;;2023057;29;20059;-89
2023/05/19 04:56:16;;;;;;;2.95;2.58;;;;;;;;;;2015544;29;20036;-89
2023/05/19 04:57:17;;;;;;;3.67;2.90;;;;;;;;;;2015078;29;20061;-88
2023/05/19 04:58:18;;;;;;;3.53;2.42;;;;;;;;;;2023173;29;20393;-91
2023/05/19 04:59:18;;;;;;;3.10;2.53;;;;;;;;;;2023207;29;20119;-90
2023/05/19 05:00:20;;;;;;;2.60;2.40;;;;;;;;;;2023001;29;20112;-89
2023/05/19 05:01:24;;;;;;;3.53;2.58;;;;;;;;;;2030577;29;20043;-90
2023/05/19 05:02:26;;;;;;;3.70;2.42;;;;;;;;;;2023150;29;20352;-90
2023/05/19 05:03:27;;;;;;;3.25;2.80;;;;;;;;;;2023023;29;20119;-88
2023/05/19 05:04:27;;;;;;;4.50;2.90;;;;;;;;;;2027060;29;20236;-89
2023/05/19 05:05:28;;;;;;;3.63;2.80;;;;;;;;;;2039111;29;20058;-89
2023/05/19 05:06:30;;;;;;;4.32;2.70;;;;;;;;;;2042102;29;20024;-89
2023/05/19 05:07:30;;;;;;;4.43;2.83;;;;;;;;;;2033524;29;20021;-88
2023/05/19 05:08:31;;;;;;;5.90;2.60;;;;;;;;;;2033540;29;20033;-88
2023/05/19 05:09:32;;;;;;;4.07;2.97;;;;;;;;;;2039310;29;20028;-88
2023/05/19 05:10:32;;;;;;;3.35;2.90;;;;;;;;;;2033068;29;20437;-88
2023/05/19 05:11:32;;;;;;;4.65;3.15;;;;;;;;;;2023242;29;20056;-88
2023/05/19 05:12:34;;;;;;;4.00;3.10;;;;;;;;;;1672204;29;10381038;-88
2023/05/19 05:13:35;;;;;;;3.88;3.13;;;;;;;;;;2033813;29;20432;-88
2023/05/19 05:14:35;;;;;;;7.13;3.08;;;;;;;;;;2022732;29;20119;-88
2023/05/19 05:15:36;;;;;;;3.58;2.90;;;;;;;;;;2023037;29;20073;-89
2023/05/19 05:16:37;;;;;;;3.55;3.08;;;;;;;;;;2023038;29;20060;-88
2023/05/19 05:17:37;;;;;;;4.88;3.00;;;;;;;;;;2014827;29;20085;-89
2023/05/19 05:18:38;;;;;;;3.90;2.88;;;;;;;;;;2023005;29;20481;-88
2023/05/19 05:19:39;;;;;;;5.25;3.65;;;;;;;;;;2031092;29;20488;-88
2023/05/19 05:20:43;;;;;;;8.15;3.30;;;;;;;;;;2038067;29;20087;-88
2023/05/19 05:21:44;;;;;;;5.55;3.22;;;;;;;;;;2029870;29;20043;-89
2023/05/19 05:22:45;;;;;;;4.50;3.00;;;;;;;;;;2022566;29;20099;-88
2023/05/19 05:23:46;;;;;;;8.65;3.63;;;;;;;;;;2031044;29;20027;-89
2023/05/19 05:24:46;;;;;;;5.15;3.40;;;;;;;;;;2037986;29;20031;-88
2023/05/19 05:25:47;;;;;;;5.25;3.20;;;;;;;;;;2038688;29;20028;-89
2023/05/19 05:26:48;;;;;;;4.32;3.47;;;;;;;;;;2033742;29;20058;-87
2023/05/19 05:27:48;;;;;;;6.13;4.65;;;;;;;;;;2025420;29;20029;-88
2023/05/19 05:28:49;;;;;;;7.82;4.22;;;;;;;;;;2023396;29;20048;-88
2023/05/19 05:29:49;;;;;;;4.38;3.78;;;;;;;;;;2031474;29;20083;-89
2023/05/19 05:30:50;;;;;;;11.57;3.97;;;;;;;;;;2023092;29;20413;-88
2023/05/19 05:31:50;;;;;;;4.80;3.72;;;;;;;;;;2023103;29;20485;-87
2023/05/19 05:32:51;;;;;;;4.07;3.45;;;;;;;;;;2031581;29;20031;-89
2023/05/19 05:33:51;;;;;;;4.65;3.50;;;;;;;;;;2031440;29;20145;-89
2023/05/19 05:34:52;;;;;;;5.90;3.58;;;;;;;;;;2031574;29;20028;-88
2023/05/19 05:35:52;;;;;;;5.93;3.58;;;;;;;;;;2038942;29;20035;-89
2023/05/19 05:36:53;;;;;;;5.18;3.78;;;;;;;;;;2038960;29;20027;-89
2023/05/19 05:37:54;;;;;;;4.45;3.70;;;;;;;;;;2030777;29;20507;-89
2023/05/19 05:38:55;;;;;;;4.70;3.97;;;;;;;;;;2023361;29;20560;-88
2023/05/19 05:39:55;;;;;;;6.05;4.55;;;;;;;;;;2026187;29;20051;-88
2023/05/19 05:40:57;;;;;;;7.03;3.72;;;;;;;;;;2044597;29;20035;-90
2023/05/19 05:41:58;;;;;;;5.97;3.85;;;;;;;;;;2043717;29;20423;-87
2023/05/19 05:42:58;;;;;;;6.05;3.97;;;;;;;;;;2035406;29;20024;-89
2023/05/19 05:43:59;;;;;;;4.63;3.63;;;;;;;;;;2033267;29;20032;-89
2023/05/19 05:44:59;;;;;;;4.97;3.80;;;;;;;;;;2033799;29;20484;-88
2023/05/19 05:46:00;;;;;;;6.47;3.55;;;;;;;;;;2040229;29;20031;-88
2023/05/19 05:47:01;;;;;;;4.82;3.85;;;;;;;;;;2040596;29;20526;-87
2023/05/19 05:48:16;;;;;;;4.10;3.65;;;;;;;;;;2024864;29;20029;-88
2023/05/19 05:49:17;;;;;;;4.30;3.85;;;;;;;;;;2026920;29;20028;-87
2023/05/19 05:50:18;;;;;;;8.05;3.90;;;;;;;;;;2033326;29;20512;-87
2023/05/19 05:51:32;;;;;;;5.93;4.15;;;;;;;;;;2032954;29;20021;-88
2023/05/19 05:52:35;;;;;;;4.10;3.65;;;;;;;;;;2035216;29;20028;-88
2023/05/19 05:53:43;;;;;;;6.57;4.03;;;;;;;;;;2024253;29;20045;-87
2023/05/19 05:54:45;;;;;;;4.75;3.65;;;;;;;;;;2025650;29;20060;-87
2023/05/19 05:55:46;;;;;;;4.43;3.75;;;;;;;;;;2024407;29;20056;-88
2023/05/19 05:56:47;;;;;;;7.53;3.67;;;;;;;;;;2024959;29;20100;-87
2023/05/19 05:57:49;;;;;;;5.65;4.10;;;;;;;;;;2033004;29;20024;-87
2023/05/19 05:58:49;;;;;;;4.53;3.95;;;;;;;;;;2024765;29;20100;-87
2023/05/19 05:59:50;;;;;;;6.22;4.03;;;;;;;;;;2024644;29;20028;-87
2023/05/19 06:00:52;;;;;;;5.45;3.90;;;;;;;;;;2024516;29;20036;-87
2023/05/19 06:01:52;;;;;;;4.32;3.60;;;;;;;;;;2024921;29;20027;-87
2023/05/19 06:02:53;;;;;;;8.98;4.15;;;;;;;;;;2033057;29;20138;-87
2023/05/19 06:03:53;;;;;;;5.57;4.20;;;;;;;;;;2040322;29;20032;-87
2023/05/19 06:04:54;;;;;;;6.40;3.85;;;;;;;;;;2039573;29;20027;-87
2023/05/19 06:05:54;;;;;;;4.43;3.50;;;;;;;;;;2024017;29;20430;-88
2023/05/19 06:06:59;;;;;;;5.43;3.63;;;;;;;;;;2024225;29;20031;-87
2023/05/19 06:08:00;;;;;;;7.10;3.85;;;;;;;;;;2035685;29;20031;-89
2023/05/19 06:09:00;;;;;;;5.28;3.85;;;;;;;;;;2032160;29;20008;-88
2023/05/19 06:10:01;;;;;;;5.68;3.70;;;;;;;;;;2032361;29;20052;-86
2023/05/19 06:11:07;;;;;;;4.97;3.50;;;;;;;;;;2042086;29;20059;-87
2023/05/19 06:12:10;;;;;;;3.97;3.30;;;;;;;;;;2033569;29;20023;-86
2023/05/19 06:13:11;;;;;;;4.32;3.17;;;;;;;;;;2020428;29;20191;-87
2023/05/19 06:14:11;;;;;;;4.53;3.60;;;;;;;;;;2016652;29;20446;-88
2023/05/19 06:15:12;;;;;;;8.77;3.85;;;;;;;;;;2018680;29;20032;-87